sensor_id;sensor_type;location;lat;lon;timestamp;temperature;humidity
30893;DHT22;17595;50.884;4.346;2022-09-21T00:02:05;14.20;99.90
30893;DHT22;17595;50.884;4.346;2022-09-21T00:04:30;14.20;99.90
30893;DHT22;17595;50.884;4.346;2022-09-21T00:06:56;14.10;99.90
30893;DHT22;17595;50.884;4.346;2022-09-21T00:09:22;14.00;99.90
30893;DHT22;17595;50.884;4.346;2022-09-21T00:11:47;14.00;99.90
30893;DHT22;17595;50.884;4.346;2022-09-21T00:14:14;14.10;99.90
30893;DHT22;17595;50.884;4.346;2022-09-21T00:16:41;14.00;99.90
30893;DHT22;17595;50.884;4.346;2022-09-21T00:19:07;13.90;99.90
30893;DHT22;17595;50.884;4.346;2022-09-21T00:21:33;13.90;99.90
30893;DHT22;17595;50.884;4.346;2022-09-21T00:24:00;13.80;99.90
30893;DHT22;17595;50.884;4.346;2022-09-21T00:26:27;13.80;99.90
30893;DHT22;17595;50.884;4.346;2022-09-21T00:28:58;13.80;99.90
30893;DHT22;17595;50.884;4.346;2022-09-21T00:31:25;13.80;99.90
30893;DHT22;17595;50.884;4.346;2022-09-21T00:33:51;13.90;99.90
30893;DHT22;17595;50.884;4.346;2022-09-21T00:36:19;13.90;99.90
30893;DHT22;17595;50.884;4.346;2022-09-21T00:38:52;13.90;99.90
30893;DHT22;17595;50.884;4.346;2022-09-21T00:41:18;13.80;99.90
30893;DHT22;17595;50.884;4.346;2022-09-21T00:43:47;13.80;99.90
30893;DHT22;17595;50.884;4.346;2022-09-21T00:46:25;13.90;99.90
30893;DHT22;17595;50.884;4.346;2022-09-21T00:48:52;13.80;99.90
30893;DHT22;17595;50.884;4.346;2022-09-21T00:51:18;13.70;99.90
30893;DHT22;17595;50.884;4.346;2022-09-21T00:53:45;13.70;99.90
30893;DHT22;17595;50.884;4.346;2022-09-21T00:56:13;13.60;99.90
30893;DHT22;17595;50.884;4.346;2022-09-21T00:58:44;13.60;99.90
30893;DHT22;17595;50.884;4.346;2022-09-21T01:01:12;13.60;99.90
30893;DHT22;17595;50.884;4.346;2022-09-21T01:03:40;13.60;99.90
30893;DHT22;17595;50.884;4.346;2022-09-21T01:06:11;13.60;99.90
30893;DHT22;17595;50.884;4.346;2022-09-21T01:08:37;13.60;99.90
30893;DHT22;17595;50.884;4.346;2022-09-21T01:14:07;13.60;99.90
30893;DHT22;17595;50.884;4.346;2022-09-21T01:25:00;13.50;99.90
30893;DHT22;17595;50.884;4.346;2022-09-21T01:30:19;13.50;99.90
30893;DHT22;17595;50.884;4.346;2022-09-21T01:35:30;13.30;99.90
30893;DHT22;17595;50.884;4.346;2022-09-21T01:38:04;13.30;99.90
30893;DHT22;17595;50.884;4.346;2022-09-21T01:40:33;13.30;99.90
30893;DHT22;17595;50.884;4.346;2022-09-21T01:43:02;13.40;99.90
30893;DHT22;17595;50.884;4.346;2022-09-21T01:45:34;13.30;99.90
30893;DHT22;17595;50.884;4.346;2022-09-21T01:48:02;13.30;99.90
30893;DHT22;17595;50.884;4.346;2022-09-21T01:50:40;13.40;99.90
30893;DHT22;17595;50.884;4.346;2022-09-21T01:53:40;13.30;99.90
30893;DHT22;17595;50.884;4.346;2022-09-21T01:59:08;13.30;99.90
30893;DHT22;17595;50.884;4.346;2022-09-21T02:01:38;13.20;99.90
30893;DHT22;17595;50.884;4.346;2022-09-21T02:04:09;13.30;99.90
30893;DHT22;17595;50.884;4.346;2022-09-21T02:06:40;13.30;99.90
30893;DHT22;17595;50.884;4.346;2022-09-21T02:09:07;13.30;99.90
30893;DHT22;17595;50.884;4.346;2022-09-21T02:11:33;13.30;99.90
30893;DHT22;17595;50.884;4.346;2022-09-21T02:14:03;13.30;99.90
30893;DHT22;17595;50.884;4.346;2022-09-21T02:20:01;13.20;99.90
30893;DHT22;17595;50.884;4.346;2022-09-21T02:28:21;13.20;99.90
30893;DHT22;17595;50.884;4.346;2022-09-21T02:30:59;13.20;99.90
30893;DHT22;17595;50.884;4.346;2022-09-21T02:33:31;13.20;99.90
30893;DHT22;17595;50.884;4.346;2022-09-21T02:36:09;13.20;99.90
30893;DHT22;17595;50.884;4.346;2022-09-21T02:38:50;13.20;99.90
30893;DHT22;17595;50.884;4.346;2022-09-21T02:44:01;13.20;99.90
30893;DHT22;17595;50.884;4.346;2022-09-21T02:46:33;13.20;99.90
30893;DHT22;17595;50.884;4.346;2022-09-21T02:49:04;13.20;99.90
30893;DHT22;17595;50.884;4.346;2022-09-21T02:51:41;13.20;99.90
30893;DHT22;17595;50.884;4.346;2022-09-21T02:54:10;13.10;99.90
30893;DHT22;17595;50.884;4.346;2022-09-21T02:56:39;13.00;99.90
30893;DHT22;17595;50.884;4.346;2022-09-21T02:59:06;13.00;99.90
30893;DHT22;17595;50.884;4.346;2022-09-21T03:01:33;13.10;99.90
30893;DHT22;17595;50.884;4.346;2022-09-21T03:03:59;13.20;99.90
30893;DHT22;17595;50.884;4.346;2022-09-21T03:06:24;13.20;99.90
30893;DHT22;17595;50.884;4.346;2022-09-21T03:08:50;13.10;99.90
30893;DHT22;17595;50.884;4.346;2022-09-21T03:11:16;13.10;99.90
30893;DHT22;17595;50.884;4.346;2022-09-21T03:13:42;13.10;99.90
30893;DHT22;17595;50.884;4.346;2022-09-21T03:16:09;13.00;99.90
30893;DHT22;17595;50.884;4.346;2022-09-21T03:18:35;13.10;99.90
30893;DHT22;17595;50.884;4.346;2022-09-21T03:21:01;13.00;99.90
30893;DHT22;17595;50.884;4.346;2022-09-21T03:23:28;13.00;99.90
30893;DHT22;17595;50.884;4.346;2022-09-21T03:25:54;13.10;99.90
30893;DHT22;17595;50.884;4.346;2022-09-21T03:28:20;13.10;99.90
30893;DHT22;17595;50.884;4.346;2022-09-21T03:30:49;13.00;99.90
30893;DHT22;17595;50.884;4.346;2022-09-21T03:33:16;13.00;99.90
30893;DHT22;17595;50.884;4.346;2022-09-21T03:35:42;13.00;99.90
30893;DHT22;17595;50.884;4.346;2022-09-21T03:38:09;13.10;99.90
30893;DHT22;17595;50.884;4.346;2022-09-21T03:40:34;13.00;99.90
30893;DHT22;17595;50.884;4.346;2022-09-21T03:43:00;13.20;99.90
30893;DHT22;17595;50.884;4.346;2022-09-21T03:45:26;13.10;99.90
30893;DHT22;17595;50.884;4.346;2022-09-21T03:47:54;13.00;99.90
30893;DHT22;17595;50.884;4.346;2022-09-21T03:50:21;13.00;99.90
30893;DHT22;17595;50.884;4.346;2022-09-21T03:52:47;13.10;99.90
30893;DHT22;17595;50.884;4.346;2022-09-21T03:55:12;13.10;99.90
30893;DHT22;17595;50.884;4.346;2022-09-21T03:57:38;13.10;99.90
30893;DHT22;17595;50.884;4.346;2022-09-21T04:00:08;13.00;99.90
30893;DHT22;17595;50.884;4.346;2022-09-21T04:02:35;12.90;99.90
30893;DHT22;17595;50.884;4.346;2022-09-21T04:05:01;12.90;99.90
30893;DHT22;17595;50.884;4.346;2022-09-21T04:07:30;12.90;99.90
30893;DHT22;17595;50.884;4.346;2022-09-21T04:09:59;12.90;99.90
30893;DHT22;17595;50.884;4.346;2022-09-21T04:12:25;12.90;99.90
30893;DHT22;17595;50.884;4.346;2022-09-21T04:14:51;12.80;99.90
30893;DHT22;17595;50.884;4.346;2022-09-21T04:17:16;12.90;99.90
30893;DHT22;17595;50.884;4.346;2022-09-21T04:19:42;13.00;99.90
30893;DHT22;17595;50.884;4.346;2022-09-21T04:22:10;13.00;99.90
30893;DHT22;17595;50.884;4.346;2022-09-21T04:24:37;12.90;99.90
30893;DHT22;17595;50.884;4.346;2022-09-21T04:27:06;12.90;99.90
30893;DHT22;17595;50.884;4.346;2022-09-21T04:29:32;12.80;99.90
30893;DHT22;17595;50.884;4.346;2022-09-21T04:31:58;12.70;99.90
30893;DHT22;17595;50.884;4.346;2022-09-21T04:34:23;12.70;99.90
30893;DHT22;17595;50.884;4.346;2022-09-21T04:36:49;12.70;99.90
30893;DHT22;17595;50.884;4.346;2022-09-21T04:39:14;12.80;99.90
30893;DHT22;17595;50.884;4.346;2022-09-21T04:41:40;12.80;99.90
30893;DHT22;17595;50.884;4.346;2022-09-21T04:44:06;12.80;99.90
30893;DHT22;17595;50.884;4.346;2022-09-21T04:46:32;12.70;99.90
30893;DHT22;17595;50.884;4.346;2022-09-21T04:48:58;12.70;99.90
30893;DHT22;17595;50.884;4.346;2022-09-21T04:51:23;12.70;99.90
30893;DHT22;17595;50.884;4.346;2022-09-21T04:53:49;12.60;99.90
30893;DHT22;17595;50.884;4.346;2022-09-21T04:56:15;12.60;99.90
30893;DHT22;17595;50.884;4.346;2022-09-21T04:58:41;12.70;99.90
30893;DHT22;17595;50.884;4.346;2022-09-21T05:01:07;12.70;99.90
30893;DHT22;17595;50.884;4.346;2022-09-21T05:03:33;12.70;99.90
30893;DHT22;17595;50.884;4.346;2022-09-21T05:05:59;12.70;99.90
30893;DHT22;17595;50.884;4.346;2022-09-21T05:08:25;12.70;99.90
30893;DHT22;17595;50.884;4.346;2022-09-21T05:11:15;12.80;99.90
30893;DHT22;17595;50.884;4.346;2022-09-21T05:13:42;12.80;99.90
30893;DHT22;17595;50.884;4.346;2022-09-21T05:16:08;12.70;99.90
30893;DHT22;17595;50.884;4.346;2022-09-21T05:18:34;12.70;99.90
30893;DHT22;17595;50.884;4.346;2022-09-21T05:21:01;12.80;99.90
30893;DHT22;17595;50.884;4.346;2022-09-21T05:23:27;12.80;99.90
30893;DHT22;17595;50.884;4.346;2022-09-21T05:25:54;12.80;99.90
30893;DHT22;17595;50.884;4.346;2022-09-21T05:28:21;12.80;99.90
30893;DHT22;17595;50.884;4.346;2022-09-21T05:31:01;12.80;99.90
30893;DHT22;17595;50.884;4.346;2022-09-21T05:33:29;12.80;99.90
30893;DHT22;17595;50.884;4.346;2022-09-21T05:38:30;12.90;99.90
30893;DHT22;17595;50.884;4.346;2022-09-21T05:40:56;12.80;99.90
30893;DHT22;17595;50.884;4.346;2022-09-21T05:43:22;12.80;99.90
30893;DHT22;17595;50.884;4.346;2022-09-21T05:46:03;12.70;99.90
30893;DHT22;17595;50.884;4.346;2022-09-21T05:48:40;12.80;99.90
30893;DHT22;17595;50.884;4.346;2022-09-21T05:54:14;12.70;99.90
30893;DHT22;17595;50.884;4.346;2022-09-21T05:57:10;12.70;99.90
30893;DHT22;17595;50.884;4.346;2022-09-21T06:00:00;12.80;99.90
30893;DHT22;17595;50.884;4.346;2022-09-21T06:05:13;12.80;99.90
30893;DHT22;17595;50.884;4.346;2022-09-21T06:07:39;12.70;99.90
30893;DHT22;17595;50.884;4.346;2022-09-21T06:10:07;12.70;99.90
30893;DHT22;17595;50.884;4.346;2022-09-21T06:12:32;12.70;99.90
30893;DHT22;17595;50.884;4.346;2022-09-21T06:14:58;12.70;99.90
30893;DHT22;17595;50.884;4.346;2022-09-21T06:17:23;12.70;99.90
30893;DHT22;17595;50.884;4.346;2022-09-21T06:19:52;12.70;99.90
30893;DHT22;17595;50.884;4.346;2022-09-21T06:22:17;12.70;99.90
30893;DHT22;17595;50.884;4.346;2022-09-21T06:24:43;12.90;99.90
30893;DHT22;17595;50.884;4.346;2022-09-21T06:27:09;13.00;99.90
30893;DHT22;17595;50.884;4.346;2022-09-21T06:29:34;13.00;99.90
30893;DHT22;17595;50.884;4.346;2022-09-21T06:32:02;13.00;99.90
30893;DHT22;17595;50.884;4.346;2022-09-21T06:34:29;13.00;99.90
30893;DHT22;17595;50.884;4.346;2022-09-21T06:36:55;13.00;99.90
30893;DHT22;17595;50.884;4.346;2022-09-21T06:39:21;13.10;99.90
30893;DHT22;17595;50.884;4.346;2022-09-21T06:41:46;13.10;99.90
30893;DHT22;17595;50.884;4.346;2022-09-21T06:44:12;13.20;99.90
30893;DHT22;17595;50.884;4.346;2022-09-21T06:46:37;13.20;99.90
30893;DHT22;17595;50.884;4.346;2022-09-21T06:49:04;13.30;99.90
30893;DHT22;17595;50.884;4.346;2022-09-21T06:51:29;13.20;99.90
30893;DHT22;17595;50.884;4.346;2022-09-21T06:53:56;13.30;99.90
30893;DHT22;17595;50.884;4.346;2022-09-21T06:56:22;13.40;99.90
30893;DHT22;17595;50.884;4.346;2022-09-21T06:58:48;13.40;99.90
30893;DHT22;17595;50.884;4.346;2022-09-21T07:01:15;13.40;99.90
30893;DHT22;17595;50.884;4.346;2022-09-21T07:03:41;13.50;99.90
30893;DHT22;17595;50.884;4.346;2022-09-21T07:06:09;13.50;99.90
30893;DHT22;17595;50.884;4.346;2022-09-21T07:08:36;13.60;99.90
30893;DHT22;17595;50.884;4.346;2022-09-21T07:11:02;13.60;99.90
30893;DHT22;17595;50.884;4.346;2022-09-21T07:13:28;13.60;99.90
30893;DHT22;17595;50.884;4.346;2022-09-21T07:15:54;13.60;99.90
30893;DHT22;17595;50.884;4.346;2022-09-21T07:18:20;13.70;99.90
30893;DHT22;17595;50.884;4.346;2022-09-21T07:20:46;13.60;99.90
30893;DHT22;17595;50.884;4.346;2022-09-21T07:23:14;13.70;99.90
30893;DHT22;17595;50.884;4.346;2022-09-21T07:25:45;13.70;99.90
30893;DHT22;17595;50.884;4.346;2022-09-21T07:28:17;13.70;99.90
30893;DHT22;17595;50.884;4.346;2022-09-21T07:30:43;13.80;99.90
30893;DHT22;17595;50.884;4.346;2022-09-21T07:33:09;13.90;99.90
30893;DHT22;17595;50.884;4.346;2022-09-21T07:35:34;13.90;99.90
30893;DHT22;17595;50.884;4.346;2022-09-21T07:38:02;13.90;99.90
30893;DHT22;17595;50.884;4.346;2022-09-21T07:40:29;13.90;99.90
30893;DHT22;17595;50.884;4.346;2022-09-21T07:42:58;14.00;99.90
30893;DHT22;17595;50.884;4.346;2022-09-21T07:45:26;14.10;99.90
30893;DHT22;17595;50.884;4.346;2022-09-21T07:47:52;14.10;99.90
30893;DHT22;17595;50.884;4.346;2022-09-21T07:50:19;14.10;99.90
30893;DHT22;17595;50.884;4.346;2022-09-21T07:52:45;14.20;99.90
30893;DHT22;17595;50.884;4.346;2022-09-21T07:55:11;14.30;99.90
30893;DHT22;17595;50.884;4.346;2022-09-21T07:57:37;14.30;99.90
30893;DHT22;17595;50.884;4.346;2022-09-21T08:00:21;14.30;99.90
30893;DHT22;17595;50.884;4.346;2022-09-21T08:02:46;14.40;99.90
30893;DHT22;17595;50.884;4.346;2022-09-21T08:05:12;14.40;99.90
30893;DHT22;17595;50.884;4.346;2022-09-21T08:07:37;14.40;99.90
30893;DHT22;17595;50.884;4.346;2022-09-21T08:10:04;14.50;99.90
30893;DHT22;17595;50.884;4.346;2022-09-21T08:12:30;14.60;99.90
30893;DHT22;17595;50.884;4.346;2022-09-21T08:14:56;14.60;99.90
30893;DHT22;17595;50.884;4.346;2022-09-21T08:17:21;14.70;99.90
30893;DHT22;17595;50.884;4.346;2022-09-21T08:19:48;14.80;99.90
30893;DHT22;17595;50.884;4.346;2022-09-21T08:22:14;14.90;99.90
30893;DHT22;17595;50.884;4.346;2022-09-21T08:24:39;15.00;99.90
30893;DHT22;17595;50.884;4.346;2022-09-21T08:27:09;15.00;99.90
30893;DHT22;17595;50.884;4.346;2022-09-21T08:29:34;15.10;99.90
30893;DHT22;17595;50.884;4.346;2022-09-21T08:32:01;15.00;99.90
30893;DHT22;17595;50.884;4.346;2022-09-21T08:34:27;15.10;99.90
30893;DHT22;17595;50.884;4.346;2022-09-21T08:36:52;15.20;99.90
30893;DHT22;17595;50.884;4.346;2022-09-21T08:39:18;15.30;99.90
30893;DHT22;17595;50.884;4.346;2022-09-21T08:44:36;15.50;99.90
30893;DHT22;17595;50.884;4.346;2022-09-21T08:47:34;15.60;99.90
30893;DHT22;17595;50.884;4.346;2022-09-21T08:49:57;15.50;99.90
30893;DHT22;17595;50.884;4.346;2022-09-21T08:52:25;15.50;99.90
30893;DHT22;17595;50.884;4.346;2022-09-21T08:54:56;15.30;99.90
30893;DHT22;17595;50.884;4.346;2022-09-21T08:57:28;15.40;99.90
30893;DHT22;17595;50.884;4.346;2022-09-21T08:59:54;15.40;99.90
30893;DHT22;17595;50.884;4.346;2022-09-21T09:03:15;15.30;99.90
30893;DHT22;17595;50.884;4.346;2022-09-21T09:05:54;15.40;99.90
30893;DHT22;17595;50.884;4.346;2022-09-21T09:14:09;15.80;99.90
30893;DHT22;17595;50.884;4.346;2022-09-21T09:22:20;16.00;99.90
30893;DHT22;17595;50.884;4.346;2022-09-21T09:24:55;16.20;99.90
30893;DHT22;17595;50.884;4.346;2022-09-21T09:27:27;16.30;99.90
30893;DHT22;17595;50.884;4.346;2022-09-21T09:37:51;16.20;99.90
30893;DHT22;17595;50.884;4.346;2022-09-21T09:40:22;16.10;99.90
30893;DHT22;17595;50.884;4.346;2022-09-21T09:43:07;16.10;99.90
30893;DHT22;17595;50.884;4.346;2022-09-21T09:46:00;16.10;99.90
30893;DHT22;17595;50.884;4.346;2022-09-21T09:48:46;16.00;99.90
30893;DHT22;17595;50.884;4.346;2022-09-21T09:51:14;16.10;99.90
30893;DHT22;17595;50.884;4.346;2022-09-21T09:53:40;16.40;99.90
30893;DHT22;17595;50.884;4.346;2022-09-21T09:56:07;16.40;99.90
30893;DHT22;17595;50.884;4.346;2022-09-21T09:58:59;16.40;99.90
30893;DHT22;17595;50.884;4.346;2022-09-21T10:04:07;16.00;99.90
30893;DHT22;17595;50.884;4.346;2022-09-21T10:06:33;16.10;99.90
30893;DHT22;17595;50.884;4.346;2022-09-21T10:08:59;16.10;99.90
30893;DHT22;17595;50.884;4.346;2022-09-21T10:11:35;16.30;99.90
30893;DHT22;17595;50.884;4.346;2022-09-21T10:14:09;16.60;99.90
30893;DHT22;17595;50.884;4.346;2022-09-21T10:16:41;16.40;99.90
30893;DHT22;17595;50.884;4.346;2022-09-21T10:19:18;16.50;99.90
30893;DHT22;17595;50.884;4.346;2022-09-21T10:21:45;16.60;99.90
30893;DHT22;17595;50.884;4.346;2022-09-21T10:24:14;16.90;99.90
30893;DHT22;17595;50.884;4.346;2022-09-21T10:26:54;17.00;99.90
30893;DHT22;17595;50.884;4.346;2022-09-21T10:32:00;17.40;99.90
30893;DHT22;17595;50.884;4.346;2022-09-21T10:34:29;17.30;99.90
30893;DHT22;17595;50.884;4.346;2022-09-21T10:36:57;17.40;99.90
30893;DHT22;17595;50.884;4.346;2022-09-21T10:39:25;17.60;99.90
30893;DHT22;17595;50.884;4.346;2022-09-21T10:44:42;17.60;99.90
30893;DHT22;17595;50.884;4.346;2022-09-21T10:49:51;17.80;99.90
30893;DHT22;17595;50.884;4.346;2022-09-21T10:52:21;17.70;99.90
30893;DHT22;17595;50.884;4.346;2022-09-21T10:54:51;17.80;99.90
30893;DHT22;17595;50.884;4.346;2022-09-21T10:57:21;18.00;99.90
30893;DHT22;17595;50.884;4.346;2022-09-21T10:59:48;18.20;99.90
30893;DHT22;17595;50.884;4.346;2022-09-21T11:07:36;18.30;99.90
30893;DHT22;17595;50.884;4.346;2022-09-21T11:10:27;18.20;99.90
30893;DHT22;17595;50.884;4.346;2022-09-21T11:16:12;18.50;99.90
30893;DHT22;17595;50.884;4.346;2022-09-21T11:18:48;18.80;99.90
30893;DHT22;17595;50.884;4.346;2022-09-21T11:21:42;18.90;99.90
30893;DHT22;17595;50.884;4.346;2022-09-21T11:26:47;18.80;99.90
30893;DHT22;17595;50.884;4.346;2022-09-21T11:29:28;18.80;99.90
30893;DHT22;17595;50.884;4.346;2022-09-21T11:32:02;18.50;99.90
30893;DHT22;17595;50.884;4.346;2022-09-21T11:34:59;18.40;99.90
30893;DHT22;17595;50.884;4.346;2022-09-21T11:44:00;17.40;99.90
30893;DHT22;17595;50.884;4.346;2022-09-21T11:51:51;17.30;99.90
30893;DHT22;17595;50.884;4.346;2022-09-21T11:57:12;17.50;99.90
30893;DHT22;17595;50.884;4.346;2022-09-21T12:11:04;18.20;99.90
30893;DHT22;17595;50.884;4.346;2022-09-21T12:13:49;18.40;99.90
30893;DHT22;17595;50.884;4.346;2022-09-21T12:19:00;19.30;99.90
30893;DHT22;17595;50.884;4.346;2022-09-21T12:21:42;19.50;99.90
30893;DHT22;17595;50.884;4.346;2022-09-21T12:24:16;19.90;99.90
30893;DHT22;17595;50.884;4.346;2022-09-21T12:26:46;20.30;99.90
30893;DHT22;17595;50.884;4.346;2022-09-21T12:29:14;20.00;99.90
30893;DHT22;17595;50.884;4.346;2022-09-21T12:32:07;20.10;99.90
30893;DHT22;17595;50.884;4.346;2022-09-21T12:34:46;19.40;99.90
30893;DHT22;17595;50.884;4.346;2022-09-21T12:37:23;19.10;99.90
30893;DHT22;17595;50.884;4.346;2022-09-21T12:45:47;18.90;99.90
30893;DHT22;17595;50.884;4.346;2022-09-21T12:48:34;18.60;99.90
30893;DHT22;17595;50.884;4.346;2022-09-21T12:51:09;18.40;99.90
30893;DHT22;17595;50.884;4.346;2022-09-21T12:53:38;18.00;99.90
30893;DHT22;17595;50.884;4.346;2022-09-21T13:09:16;17.90;99.90
30893;DHT22;17595;50.884;4.346;2022-09-21T13:11:55;17.80;99.90
30893;DHT22;17595;50.884;4.346;2022-09-21T13:14:28;17.90;99.90
30893;DHT22;17595;50.884;4.346;2022-09-21T13:16:59;18.10;99.90
30893;DHT22;17595;50.884;4.346;2022-09-21T13:19:29;18.30;99.90
30893;DHT22;17595;50.884;4.346;2022-09-21T13:24:56;18.40;99.90
30893;DHT22;17595;50.884;4.346;2022-09-21T13:30:41;18.60;99.90
30893;DHT22;17595;50.884;4.346;2022-09-21T13:54:37;18.60;99.90
30893;DHT22;17595;50.884;4.346;2022-09-21T13:59:43;18.50;99.90
30893;DHT22;17595;50.884;4.346;2022-09-21T14:02:27;18.70;99.90
30893;DHT22;17595;50.884;4.346;2022-09-21T14:05:00;18.50;99.90
30893;DHT22;17595;50.884;4.346;2022-09-21T14:07:30;18.40;99.90
30893;DHT22;17595;50.884;4.346;2022-09-21T14:10:04;18.50;99.90
30893;DHT22;17595;50.884;4.346;2022-09-21T14:12:37;18.60;99.90
30893;DHT22;17595;50.884;4.346;2022-09-21T14:17:37;18.80;99.90
30893;DHT22;17595;50.884;4.346;2022-09-21T14:20:05;18.90;99.90
30893;DHT22;17595;50.884;4.346;2022-09-21T14:23:10;19.10;99.90
30893;DHT22;17595;50.884;4.346;2022-09-21T14:25:49;19.30;99.90
30893;DHT22;17595;50.884;4.346;2022-09-21T14:28:25;19.40;99.90
30893;DHT22;17595;50.884;4.346;2022-09-21T14:30:58;19.50;99.90
30893;DHT22;17595;50.884;4.346;2022-09-21T14:33:45;19.60;99.90
30893;DHT22;17595;50.884;4.346;2022-09-21T14:36:18;19.40;99.90
30893;DHT22;17595;50.884;4.346;2022-09-21T14:38:51;19.40;99.90
30893;DHT22;17595;50.884;4.346;2022-09-21T14:41:21;19.40;99.90
30893;DHT22;17595;50.884;4.346;2022-09-21T14:43:53;19.30;99.90
30893;DHT22;17595;50.884;4.346;2022-09-21T14:58:45;19.30;99.90
30893;DHT22;17595;50.884;4.346;2022-09-21T15:00:43;19.40;99.90
30893;DHT22;17595;50.884;4.346;2022-09-21T15:03:27;19.00;99.90
30893;DHT22;17595;50.884;4.346;2022-09-21T15:06:14;18.80;99.90
30893;DHT22;17595;50.884;4.346;2022-09-21T15:12:18;18.90;99.90
30893;DHT22;17595;50.884;4.346;2022-09-21T15:17:59;18.70;99.90
30893;DHT22;17595;50.884;4.346;2022-09-21T15:20:28;19.10;99.90
30893;DHT22;17595;50.884;4.346;2022-09-21T15:22:59;19.30;99.90
30893;DHT22;17595;50.884;4.346;2022-09-21T15:25:31;19.60;99.90
30893;DHT22;17595;50.884;4.346;2022-09-21T15:27:57;19.70;99.90
30893;DHT22;17595;50.884;4.346;2022-09-21T15:30:27;19.90;99.90
30893;DHT22;17595;50.884;4.346;2022-09-21T15:32:56;19.80;99.90
30893;DHT22;17595;50.884;4.346;2022-09-21T15:35:26;19.90;99.90
30893;DHT22;17595;50.884;4.346;2022-09-21T15:37:53;19.50;99.90
30893;DHT22;17595;50.884;4.346;2022-09-21T15:40:23;19.50;99.90
30893;DHT22;17595;50.884;4.346;2022-09-21T15:43:01;19.70;99.90
30893;DHT22;17595;50.884;4.346;2022-09-21T15:45:35;19.70;99.90
30893;DHT22;17595;50.884;4.346;2022-09-21T15:48:02;19.50;99.90
30893;DHT22;17595;50.884;4.346;2022-09-21T15:50:31;19.50;99.90
30893;DHT22;17595;50.884;4.346;2022-09-21T15:53:04;19.40;99.90
30893;DHT22;17595;50.884;4.346;2022-09-21T15:55:31;19.50;99.90
30893;DHT22;17595;50.884;4.346;2022-09-21T15:57:58;19.50;99.90
30893;DHT22;17595;50.884;4.346;2022-09-21T16:00:27;19.60;99.90
30893;DHT22;17595;50.884;4.346;2022-09-21T16:03:07;19.60;99.90
30893;DHT22;17595;50.884;4.346;2022-09-21T16:08:30;19.60;99.90
30893;DHT22;17595;50.884;4.346;2022-09-21T16:22:27;19.20;99.90
30893;DHT22;17595;50.884;4.346;2022-09-21T16:24:56;19.20;99.90
30893;DHT22;17595;50.884;4.346;2022-09-21T16:27:25;19.20;99.90
30893;DHT22;17595;50.884;4.346;2022-09-21T16:29:53;19.10;99.90
30893;DHT22;17595;50.884;4.346;2022-09-21T16:32:32;19.00;99.90
30893;DHT22;17595;50.884;4.346;2022-09-21T16:37:46;18.90;99.90
30893;DHT22;17595;50.884;4.346;2022-09-21T16:40:11;18.90;99.90
30893;DHT22;17595;50.884;4.346;2022-09-21T16:42:38;18.90;99.90
30893;DHT22;17595;50.884;4.346;2022-09-21T16:45:11;18.80;99.90
30893;DHT22;17595;50.884;4.346;2022-09-21T16:47:40;18.80;99.90
30893;DHT22;17595;50.884;4.346;2022-09-21T16:50:11;18.60;99.90
30893;DHT22;17595;50.884;4.346;2022-09-21T16:52:37;18.60;99.90
30893;DHT22;17595;50.884;4.346;2022-09-21T16:55:03;18.60;99.90
30893;DHT22;17595;50.884;4.346;2022-09-21T16:57:28;18.60;99.90
30893;DHT22;17595;50.884;4.346;2022-09-21T16:59:54;18.60;99.90
30893;DHT22;17595;50.884;4.346;2022-09-21T17:02:19;18.50;99.90
30893;DHT22;17595;50.884;4.346;2022-09-21T17:04:46;18.40;99.90
30893;DHT22;17595;50.884;4.346;2022-09-21T17:07:13;18.40;99.90
30893;DHT22;17595;50.884;4.346;2022-09-21T17:09:41;18.30;99.90
30893;DHT22;17595;50.884;4.346;2022-09-21T17:12:10;18.30;99.90
30893;DHT22;17595;50.884;4.346;2022-09-21T17:14:37;18.20;99.90
30893;DHT22;17595;50.884;4.346;2022-09-21T17:17:12;18.20;99.90
30893;DHT22;17595;50.884;4.346;2022-09-21T17:19:39;18.10;99.90
30893;DHT22;17595;50.884;4.346;2022-09-21T17:22:08;18.10;99.90
30893;DHT22;17595;50.884;4.346;2022-09-21T17:24:34;18.00;99.90
30893;DHT22;17595;50.884;4.346;2022-09-21T17:27:01;17.90;99.90
30893;DHT22;17595;50.884;4.346;2022-09-21T17:29:27;17.90;99.90
30893;DHT22;17595;50.884;4.346;2022-09-21T17:31:57;17.90;99.90
30893;DHT22;17595;50.884;4.346;2022-09-21T17:34:25;17.80;99.90
30893;DHT22;17595;50.884;4.346;2022-09-21T17:36:52;17.70;99.90
30893;DHT22;17595;50.884;4.346;2022-09-21T17:39:19;17.60;99.90
30893;DHT22;17595;50.884;4.346;2022-09-21T17:42:12;17.60;99.90
30893;DHT22;17595;50.884;4.346;2022-09-21T17:49:42;17.40;99.90
30893;DHT22;17595;50.884;4.346;2022-09-21T17:52:16;17.40;99.90
30893;DHT22;17595;50.884;4.346;2022-09-21T17:55:01;17.30;99.90
30893;DHT22;17595;50.884;4.346;2022-09-21T18:00:35;17.20;99.90
30893;DHT22;17595;50.884;4.346;2022-09-21T18:03:22;17.10;99.90
30893;DHT22;17595;50.884;4.346;2022-09-21T18:05:50;17.10;99.90
30893;DHT22;17595;50.884;4.346;2022-09-21T18:08:17;17.00;99.90
30893;DHT22;17595;50.884;4.346;2022-09-21T18:10:48;17.00;99.90
30893;DHT22;17595;50.884;4.346;2022-09-21T18:16:35;16.90;99.90
30893;DHT22;17595;50.884;4.346;2022-09-21T18:21:56;16.90;99.90
30893;DHT22;17595;50.884;4.346;2022-09-21T18:24:27;16.80;99.90
30893;DHT22;17595;50.884;4.346;2022-09-21T18:26:56;16.70;99.90
30893;DHT22;17595;50.884;4.346;2022-09-21T18:29:30;16.60;99.90
30893;DHT22;17595;50.884;4.346;2022-09-21T18:46:07;16.50;99.90
30893;DHT22;17595;50.884;4.346;2022-09-21T18:48:51;16.40;99.90
30893;DHT22;17595;50.884;4.346;2022-09-21T18:54:22;16.30;99.90
30893;DHT22;17595;50.884;4.346;2022-09-21T18:56:49;16.30;99.90
30893;DHT22;17595;50.884;4.346;2022-09-21T18:59:16;16.20;99.90
30893;DHT22;17595;50.884;4.346;2022-09-21T19:01:43;16.20;99.90
30893;DHT22;17595;50.884;4.346;2022-09-21T19:04:10;16.20;99.90
30893;DHT22;17595;50.884;4.346;2022-09-21T19:07:02;16.10;99.90
30893;DHT22;17595;50.884;4.346;2022-09-21T19:09:43;16.10;99.90
30893;DHT22;17595;50.884;4.346;2022-09-21T19:23:15;16.00;99.90
30893;DHT22;17595;50.884;4.346;2022-09-21T19:25:49;16.00;99.90
30893;DHT22;17595;50.884;4.346;2022-09-21T19:31:02;15.90;99.90
30893;DHT22;17595;50.884;4.346;2022-09-21T19:33:32;15.90;99.90
30893;DHT22;17595;50.884;4.346;2022-09-21T19:35:58;15.80;99.90
30893;DHT22;17595;50.884;4.346;2022-09-21T19:38:27;15.80;99.90
30893;DHT22;17595;50.884;4.346;2022-09-21T19:41:02;15.90;99.90
30893;DHT22;17595;50.884;4.346;2022-09-21T19:43:47;15.90;99.90
30893;DHT22;17595;50.884;4.346;2022-09-21T19:46:23;15.80;99.90
30893;DHT22;17595;50.884;4.346;2022-09-21T19:48:58;15.80;99.90
30893;DHT22;17595;50.884;4.346;2022-09-21T19:51:46;15.70;99.90
30893;DHT22;17595;50.884;4.346;2022-09-21T19:54:15;15.70;99.90
30893;DHT22;17595;50.884;4.346;2022-09-21T19:57:00;15.70;99.90